sensor_id;sensor_type;location;lat;lon;timestamp;P1;durP1;ratioP1;P2;durP2;ratioP2
16506;SDS011;8366;51.020;7.642;2022-07-29T00:00:18;4.50;;;2.38;;
16506;SDS011;8366;51.020;7.642;2022-07-29T00:02:46;3.20;;;2.10;;
16506;SDS011;8366;51.020;7.642;2022-07-29T00:05:13;5.18;;;2.20;;
16506;SDS011;8366;51.020;7.642;2022-07-29T00:07:39;5.15;;;2.33;;
16506;SDS011;8366;51.020;7.642;2022-07-29T00:10:06;3.50;;;2.08;;
16506;SDS011;8366;51.020;7.642;2022-07-29T00:12:33;4.45;;;2.05;;
16506;SDS011;8366;51.020;7.642;2022-07-29T00:15:00;2.28;;;1.98;;
16506;SDS011;8366;51.020;7.642;2022-07-29T00:17:27;3.97;;;2.03;;
16506;SDS011;8366;51.020;7.642;2022-07-29T00:19:54;4.35;;;2.15;;
16506;SDS011;8366;51.020;7.642;2022-07-29T00:22:21;6.65;;;2.45;;
16506;SDS011;8366;51.020;7.642;2022-07-29T00:24:47;3.25;;;2.08;;
16506;SDS011;8366;51.020;7.642;2022-07-29T00:27:14;5.30;;;2.13;;
16506;SDS011;8366;51.020;7.642;2022-07-29T00:29:41;3.42;;;2.10;;
16506;SDS011;8366;51.020;7.642;2022-07-29T00:32:07;3.90;;;1.92;;
16506;SDS011;8366;51.020;7.642;2022-07-29T00:34:34;5.68;;;2.22;;
16506;SDS011;8366;51.020;7.642;2022-07-29T00:37:19;4.85;;;2.20;;
16506;SDS011;8366;51.020;7.642;2022-07-29T00:39:45;3.33;;;2.25;;
16506;SDS011;8366;51.020;7.642;2022-07-29T00:42:12;3.65;;;2.05;;
16506;SDS011;8366;51.020;7.642;2022-07-29T00:44:38;4.13;;;1.77;;
16506;SDS011;8366;51.020;7.642;2022-07-29T00:47:06;4.50;;;1.80;;
16506;SDS011;8366;51.020;7.642;2022-07-29T00:49:33;8.52;;;1.85;;
16506;SDS011;8366;51.020;7.642;2022-07-29T00:52:00;4.18;;;2.10;;
16506;SDS011;8366;51.020;7.642;2022-07-29T00:54:28;3.05;;;1.70;;
16506;SDS011;8366;51.020;7.642;2022-07-29T00:56:55;5.53;;;1.83;;
16506;SDS011;8366;51.020;7.642;2022-07-29T00:59:22;2.83;;;2.13;;
16506;SDS011;8366;51.020;7.642;2022-07-29T01:01:49;3.10;;;2.17;;
16506;SDS011;8366;51.020;7.642;2022-07-29T01:04:15;4.47;;;2.20;;
16506;SDS011;8366;51.020;7.642;2022-07-29T01:06:42;4.38;;;2.20;;
16506;SDS011;8366;51.020;7.642;2022-07-29T01:09:09;2.55;;;1.90;;
16506;SDS011;8366;51.020;7.642;2022-07-29T01:11:37;3.17;;;2.28;;
16506;SDS011;8366;51.020;7.642;2022-07-29T01:14:03;4.70;;;2.40;;
16506;SDS011;8366;51.020;7.642;2022-07-29T01:16:32;4.47;;;2.30;;
16506;SDS011;8366;51.020;7.642;2022-07-29T01:19:00;4.45;;;1.98;;
16506;SDS011;8366;51.020;7.642;2022-07-29T01:21:43;3.28;;;2.20;;
16506;SDS011;8366;51.020;7.642;2022-07-29T01:24:23;5.07;;;1.90;;
16506;SDS011;8366;51.020;7.642;2022-07-29T01:26:58;4.32;;;1.73;;
16506;SDS011;8366;51.020;7.642;2022-07-29T01:29:28;3.17;;;2.17;;
16506;SDS011;8366;51.020;7.642;2022-07-29T01:31:56;4.32;;;2.15;;
16506;SDS011;8366;51.020;7.642;2022-07-29T01:34:25;7.93;;;2.42;;
16506;SDS011;8366;51.020;7.642;2022-07-29T01:36:57;6.13;;;2.17;;
16506;SDS011;8366;51.020;7.642;2022-07-29T01:39:30;4.72;;;2.35;;
16506;SDS011;8366;51.020;7.642;2022-07-29T01:42:00;4.45;;;2.10;;
16506;SDS011;8366;51.020;7.642;2022-07-29T01:44:33;3.78;;;2.00;;
16506;SDS011;8366;51.020;7.642;2022-07-29T01:47:05;4.35;;;2.10;;
16506;SDS011;8366;51.020;7.642;2022-07-29T01:49:35;2.88;;;2.05;;
16506;SDS011;8366;51.020;7.642;2022-07-29T01:52:03;4.53;;;2.30;;
16506;SDS011;8366;51.020;7.642;2022-07-29T01:54:32;2.13;;;1.90;;
16506;SDS011;8366;51.020;7.642;2022-07-29T01:57:04;4.28;;;1.80;;
16506;SDS011;8366;51.020;7.642;2022-07-29T01:59:34;4.57;;;2.00;;
16506;SDS011;8366;51.020;7.642;2022-07-29T02:02:02;4.07;;;1.88;;
16506;SDS011;8366;51.020;7.642;2022-07-29T02:04:29;5.00;;;2.25;;
16506;SDS011;8366;51.020;7.642;2022-07-29T02:06:58;4.20;;;1.85;;
16506;SDS011;8366;51.020;7.642;2022-07-29T02:09:27;3.85;;;1.67;;
16506;SDS011;8366;51.020;7.642;2022-07-29T02:11:54;5.57;;;1.92;;
16506;SDS011;8366;51.020;7.642;2022-07-29T02:14:22;2.95;;;2.10;;
16506;SDS011;8366;51.020;7.642;2022-07-29T02:16:52;4.63;;;2.03;;
16506;SDS011;8366;51.020;7.642;2022-07-29T02:19:19;2.70;;;1.80;;
16506;SDS011;8366;51.020;7.642;2022-07-29T02:21:47;2.88;;;1.83;;
16506;SDS011;8366;51.020;7.642;2022-07-29T02:24:14;4.43;;;1.50;;
16506;SDS011;8366;51.020;7.642;2022-07-29T02:26:42;3.13;;;1.50;;
16506;SDS011;8366;51.020;7.642;2022-07-29T02:29:09;4.78;;;1.90;;
16506;SDS011;8366;51.020;7.642;2022-07-29T02:31:36;5.32;;;1.95;;
16506;SDS011;8366;51.020;7.642;2022-07-29T02:34:06;3.83;;;2.28;;
16506;SDS011;8366;51.020;7.642;2022-07-29T02:36:34;4.20;;;1.80;;
16506;SDS011;8366;51.020;7.642;2022-07-29T02:39:02;3.38;;;2.38;;
16506;SDS011;8366;51.020;7.642;2022-07-29T02:41:30;5.18;;;2.35;;
16506;SDS011;8366;51.020;7.642;2022-07-29T02:44:04;3.45;;;2.47;;
16506;SDS011;8366;51.020;7.642;2022-07-29T02:46:33;5.47;;;2.42;;
16506;SDS011;8366;51.020;7.642;2022-07-29T02:49:02;5.65;;;1.80;;
16506;SDS011;8366;51.020;7.642;2022-07-29T02:51:34;5.18;;;2.15;;
16506;SDS011;8366;51.020;7.642;2022-07-29T02:54:06;4.82;;;1.83;;
16506;SDS011;8366;51.020;7.642;2022-07-29T02:56:35;2.97;;;2.15;;
16506;SDS011;8366;51.020;7.642;2022-07-29T02:59:03;2.92;;;1.70;;
16506;SDS011;8366;51.020;7.642;2022-07-29T03:01:31;4.85;;;1.77;;
16506;SDS011;8366;51.020;7.642;2022-07-29T03:04:00;4.32;;;1.90;;
16506;SDS011;8366;51.020;7.642;2022-07-29T03:06:29;5.32;;;1.70;;
16506;SDS011;8366;51.020;7.642;2022-07-29T03:08:56;4.90;;;1.80;;
16506;SDS011;8366;51.020;7.642;2022-07-29T03:11:23;4.30;;;1.90;;
16506;SDS011;8366;51.020;7.642;2022-07-29T03:13:50;5.57;;;1.83;;
16506;SDS011;8366;51.020;7.642;2022-07-29T03:16:17;4.13;;;1.80;;
16506;SDS011;8366;51.020;7.642;2022-07-29T03:18:44;2.55;;;1.75;;
16506;SDS011;8366;51.020;7.642;2022-07-29T03:21:11;2.75;;;1.80;;
16506;SDS011;8366;51.020;7.642;2022-07-29T03:23:39;4.28;;;1.80;;
16506;SDS011;8366;51.020;7.642;2022-07-29T03:26:09;5.55;;;1.95;;
16506;SDS011;8366;51.020;7.642;2022-07-29T03:28:36;3.53;;;1.92;;
16506;SDS011;8366;51.020;7.642;2022-07-29T03:31:02;4.55;;;1.65;;
16506;SDS011;8366;51.020;7.642;2022-07-29T03:33:29;4.07;;;2.10;;
16506;SDS011;8366;51.020;7.642;2022-07-29T03:35:55;4.25;;;1.92;;
16506;SDS011;8366;51.020;7.642;2022-07-29T03:38:23;6.78;;;2.45;;
16506;SDS011;8366;51.020;7.642;2022-07-29T03:40:53;6.82;;;2.03;;
16506;SDS011;8366;51.020;7.642;2022-07-29T03:43:20;5.15;;;1.92;;
16506;SDS011;8366;51.020;7.642;2022-07-29T03:45:49;4.35;;;1.60;;
16506;SDS011;8366;51.020;7.642;2022-07-29T03:48:17;6.40;;;1.90;;
16506;SDS011;8366;51.020;7.642;2022-07-29T03:50:45;5.03;;;2.22;;
16506;SDS011;8366;51.020;7.642;2022-07-29T03:53:12;3.45;;;1.88;;
16506;SDS011;8366;51.020;7.642;2022-07-29T03:55:45;4.53;;;2.00;;
16506;SDS011;8366;51.020;7.642;2022-07-29T03:58:14;4.85;;;2.05;;
16506;SDS011;8366;51.020;7.642;2022-07-29T04:00:41;3.08;;;2.08;;
16506;SDS011;8366;51.020;7.642;2022-07-29T04:03:09;4.00;;;2.20;;
16506;SDS011;8366;51.020;7.642;2022-07-29T04:05:35;2.67;;;2.00;;
16506;SDS011;8366;51.020;7.642;2022-07-29T04:08:02;7.60;;;2.10;;
16506;SDS011;8366;51.020;7.642;2022-07-29T04:10:28;4.30;;;2.00;;
16506;SDS011;8366;51.020;7.642;2022-07-29T04:12:55;5.18;;;1.88;;
16506;SDS011;8366;51.020;7.642;2022-07-29T04:15:23;2.78;;;1.70;;
16506;SDS011;8366;51.020;7.642;2022-07-29T04:17:49;5.95;;;1.80;;
16506;SDS011;8366;51.020;7.642;2022-07-29T04:20:16;5.78;;;2.25;;
16506;SDS011;8366;51.020;7.642;2022-07-29T04:22:43;5.10;;;2.00;;
16506;SDS011;8366;51.020;7.642;2022-07-29T04:25:09;3.33;;;1.70;;
16506;SDS011;8366;51.020;7.642;2022-07-29T04:27:36;2.13;;;1.90;;
16506;SDS011;8366;51.020;7.642;2022-07-29T04:30:24;4.25;;;2.08;;
16506;SDS011;8366;51.020;7.642;2022-07-29T04:32:50;8.27;;;2.28;;
16506;SDS011;8366;51.020;7.642;2022-07-29T04:35:17;3.58;;;2.03;;
16506;SDS011;8366;51.020;7.642;2022-07-29T04:37:43;4.18;;;1.90;;
16506;SDS011;8366;51.020;7.642;2022-07-29T04:40:10;2.90;;;1.98;;
16506;SDS011;8366;51.020;7.642;2022-07-29T04:42:37;3.47;;;2.10;;
16506;SDS011;8366;51.020;7.642;2022-07-29T04:45:04;7.13;;;2.10;;
16506;SDS011;8366;51.020;7.642;2022-07-29T04:47:33;3.85;;;1.95;;
16506;SDS011;8366;51.020;7.642;2022-07-29T04:49:59;6.35;;;2.17;;
16506;SDS011;8366;51.020;7.642;2022-07-29T04:52:25;5.32;;;1.80;;
16506;SDS011;8366;51.020;7.642;2022-07-29T04:54:52;3.30;;;1.70;;
16506;SDS011;8366;51.020;7.642;2022-07-29T04:57:20;5.47;;;2.00;;
16506;SDS011;8366;51.020;7.642;2022-07-29T04:59:46;4.60;;;1.98;;
16506;SDS011;8366;51.020;7.642;2022-07-29T05:02:13;4.15;;;1.90;;
16506;SDS011;8366;51.020;7.642;2022-07-29T05:04:41;5.70;;;2.30;;
16506;SDS011;8366;51.020;7.642;2022-07-29T05:07:07;4.68;;;2.28;;
16506;SDS011;8366;51.020;7.642;2022-07-29T05:09:34;4.45;;;2.25;;
16506;SDS011;8366;51.020;7.642;2022-07-29T05:12:00;7.57;;;2.40;;
16506;SDS011;8366;51.020;7.642;2022-07-29T05:14:27;6.72;;;2.20;;
16506;SDS011;8366;51.020;7.642;2022-07-29T05:16:53;4.57;;;2.60;;
16506;SDS011;8366;51.020;7.642;2022-07-29T05:19:22;6.45;;;2.60;;
16506;SDS011;8366;51.020;7.642;2022-07-29T05:21:49;4.70;;;2.42;;
16506;SDS011;8366;51.020;7.642;2022-07-29T05:24:36;5.95;;;2.72;;
16506;SDS011;8366;51.020;7.642;2022-07-29T05:27:28;5.43;;;2.25;;
16506;SDS011;8366;51.020;7.642;2022-07-29T05:29:55;6.68;;;2.42;;
16506;SDS011;8366;51.020;7.642;2022-07-29T05:32:21;8.57;;;2.40;;
16506;SDS011;8366;51.020;7.642;2022-07-29T05:34:48;4.07;;;2.15;;
16506;SDS011;8366;51.020;7.642;2022-07-29T05:37:17;4.85;;;2.20;;
16506;SDS011;8366;51.020;7.642;2022-07-29T05:39:47;6.80;;;2.30;;
16506;SDS011;8366;51.020;7.642;2022-07-29T05:42:13;3.70;;;2.00;;
16506;SDS011;8366;51.020;7.642;2022-07-29T05:44:40;4.32;;;2.30;;
16506;SDS011;8366;51.020;7.642;2022-07-29T05:49:52;6.55;;;2.35;;
16506;SDS011;8366;51.020;7.642;2022-07-29T05:52:20;3.58;;;2.10;;
16506;SDS011;8366;51.020;7.642;2022-07-29T05:55:01;4.10;;;2.22;;
16506;SDS011;8366;51.020;7.642;2022-07-29T05:57:30;6.05;;;2.30;;
16506;SDS011;8366;51.020;7.642;2022-07-29T05:59:57;5.63;;;2.30;;
16506;SDS011;8366;51.020;7.642;2022-07-29T06:02:23;4.53;;;2.53;;
16506;SDS011;8366;51.020;7.642;2022-07-29T06:04:58;7.15;;;2.45;;
16506;SDS011;8366;51.020;7.642;2022-07-29T06:07:26;5.43;;;2.17;;
16506;SDS011;8366;51.020;7.642;2022-07-29T06:09:53;4.65;;;2.20;;
16506;SDS011;8366;51.020;7.642;2022-07-29T06:12:19;5.50;;;2.10;;
16506;SDS011;8366;51.020;7.642;2022-07-29T06:14:46;6.30;;;2.22;;
16506;SDS011;8366;51.020;7.642;2022-07-29T06:17:12;9.77;;;2.50;;
16506;SDS011;8366;51.020;7.642;2022-07-29T06:19:38;4.88;;;1.85;;
16506;SDS011;8366;51.020;7.642;2022-07-29T06:22:05;7.07;;;2.45;;
16506;SDS011;8366;51.020;7.642;2022-07-29T06:24:33;7.25;;;2.63;;
16506;SDS011;8366;51.020;7.642;2022-07-29T06:26:59;7.45;;;2.60;;
16506;SDS011;8366;51.020;7.642;2022-07-29T06:29:40;8.20;;;2.33;;
16506;SDS011;8366;51.020;7.642;2022-07-29T06:32:07;7.05;;;2.40;;
16506;SDS011;8366;51.020;7.642;2022-07-29T06:34:37;5.53;;;2.40;;
16506;SDS011;8366;51.020;7.642;2022-07-29T06:37:07;12.23;;;2.40;;
16506;SDS011;8366;51.020;7.642;2022-07-29T06:39:35;6.82;;;2.55;;
16506;SDS011;8366;51.020;7.642;2022-07-29T06:42:11;8.05;;;2.35;;
16506;SDS011;8366;51.020;7.642;2022-07-29T06:44:38;6.60;;;2.67;;
16506;SDS011;8366;51.020;7.642;2022-07-29T06:47:07;7.78;;;2.75;;
16506;SDS011;8366;51.020;7.642;2022-07-29T06:49:34;8.38;;;2.83;;
16506;SDS011;8366;51.020;7.642;2022-07-29T06:52:01;6.82;;;2.72;;
16506;SDS011;8366;51.020;7.642;2022-07-29T06:54:27;9.40;;;2.63;;
16506;SDS011;8366;51.020;7.642;2022-07-29T06:56:55;4.88;;;2.45;;
16506;SDS011;8366;51.020;7.642;2022-07-29T06:59:22;8.95;;;2.83;;
16506;SDS011;8366;51.020;7.642;2022-07-29T07:01:49;5.53;;;2.60;;
16506;SDS011;8366;51.020;7.642;2022-07-29T07:04:15;4.75;;;2.70;;
16506;SDS011;8366;51.020;7.642;2022-07-29T07:06:42;10.13;;;2.60;;
16506;SDS011;8366;51.020;7.642;2022-07-29T07:09:09;5.03;;;2.30;;
16506;SDS011;8366;51.020;7.642;2022-07-29T07:11:38;6.35;;;2.17;;
16506;SDS011;8366;51.020;7.642;2022-07-29T07:14:06;7.30;;;2.22;;
16506;SDS011;8366;51.020;7.642;2022-07-29T07:16:32;5.38;;;2.33;;
16506;SDS011;8366;51.020;7.642;2022-07-29T07:18:59;10.75;;;2.65;;
16506;SDS011;8366;51.020;7.642;2022-07-29T07:21:26;9.13;;;2.10;;
16506;SDS011;8366;51.020;7.642;2022-07-29T07:23:52;8.68;;;2.42;;
16506;SDS011;8366;51.020;7.642;2022-07-29T07:26:19;8.85;;;2.28;;
16506;SDS011;8366;51.020;7.642;2022-07-29T07:28:45;5.80;;;1.98;;
16506;SDS011;8366;51.020;7.642;2022-07-29T07:31:15;10.63;;;2.42;;
16506;SDS011;8366;51.020;7.642;2022-07-29T07:33:42;9.32;;;2.55;;
16506;SDS011;8366;51.020;7.642;2022-07-29T07:36:09;7.35;;;2.58;;
16506;SDS011;8366;51.020;7.642;2022-07-29T07:38:36;7.60;;;2.35;;
16506;SDS011;8366;51.020;7.642;2022-07-29T07:41:03;9.35;;;2.80;;
16506;SDS011;8366;51.020;7.642;2022-07-29T07:43:30;5.70;;;2.35;;
16506;SDS011;8366;51.020;7.642;2022-07-29T07:45:57;5.88;;;2.50;;
16506;SDS011;8366;51.020;7.642;2022-07-29T07:48:25;7.82;;;2.25;;
16506;SDS011;8366;51.020;7.642;2022-07-29T07:50:51;8.63;;;2.75;;
16506;SDS011;8366;51.020;7.642;2022-07-29T07:53:18;5.35;;;2.10;;
16506;SDS011;8366;51.020;7.642;2022-07-29T07:55:44;5.07;;;2.40;;
16506;SDS011;8366;51.020;7.642;2022-07-29T07:58:12;10.88;;;2.20;;
16506;SDS011;8366;51.020;7.642;2022-07-29T08:00:40;4.03;;;2.15;;
16506;SDS011;8366;51.020;7.642;2022-07-29T08:03:07;5.28;;;2.28;;
16506;SDS011;8366;51.020;7.642;2022-07-29T08:05:35;7.28;;;2.42;;
16506;SDS011;8366;51.020;7.642;2022-07-29T08:08:02;8.63;;;2.30;;
16506;SDS011;8366;51.020;7.642;2022-07-29T08:10:28;5.28;;;2.17;;
16506;SDS011;8366;51.020;7.642;2022-07-29T08:13:12;4.82;;;2.10;;
16506;SDS011;8366;51.020;7.642;2022-07-29T08:15:39;8.75;;;2.72;;
16506;SDS011;8366;51.020;7.642;2022-07-29T08:18:39;3.47;;;2.25;;
16506;SDS011;8366;51.020;7.642;2022-07-29T08:21:08;7.03;;;2.42;;
16506;SDS011;8366;51.020;7.642;2022-07-29T08:23:35;6.28;;;2.10;;
16506;SDS011;8366;51.020;7.642;2022-07-29T08:26:04;6.88;;;2.25;;
16506;SDS011;8366;51.020;7.642;2022-07-29T08:28:35;5.72;;;2.00;;
16506;SDS011;8366;51.020;7.642;2022-07-29T08:31:07;5.35;;;1.95;;
16506;SDS011;8366;51.020;7.642;2022-07-29T08:33:34;4.63;;;2.15;;
16506;SDS011;8366;51.020;7.642;2022-07-29T08:36:00;7.78;;;2.13;;
16506;SDS011;8366;51.020;7.642;2022-07-29T08:38:28;8.05;;;2.30;;
16506;SDS011;8366;51.020;7.642;2022-07-29T08:40:55;7.03;;;2.50;;
16506;SDS011;8366;51.020;7.642;2022-07-29T08:46:11;10.18;;;2.70;;
16506;SDS011;8366;51.020;7.642;2022-07-29T08:48:39;8.05;;;2.42;;
16506;SDS011;8366;51.020;7.642;2022-07-29T08:51:12;7.50;;;2.33;;
16506;SDS011;8366;51.020;7.642;2022-07-29T08:53:41;7.90;;;2.78;;
16506;SDS011;8366;51.020;7.642;2022-07-29T08:56:10;5.57;;;2.30;;
16506;SDS011;8366;51.020;7.642;2022-07-29T08:58:37;9.35;;;2.47;;
16506;SDS011;8366;51.020;7.642;2022-07-29T09:01:04;5.82;;;2.10;;
16506;SDS011;8366;51.020;7.642;2022-07-29T09:03:31;6.38;;;2.60;;
16506;SDS011;8366;51.020;7.642;2022-07-29T09:05:58;6.40;;;2.35;;
16506;SDS011;8366;51.020;7.642;2022-07-29T09:08:48;6.88;;;2.55;;
16506;SDS011;8366;51.020;7.642;2022-07-29T09:11:15;4.32;;;2.50;;
16506;SDS011;8366;51.020;7.642;2022-07-29T09:13:51;6.03;;;2.35;;
16506;SDS011;8366;51.020;7.642;2022-07-29T09:16:17;9.77;;;2.58;;
16506;SDS011;8366;51.020;7.642;2022-07-29T09:18:44;5.45;;;2.88;;
16506;SDS011;8366;51.020;7.642;2022-07-29T09:21:12;6.75;;;2.60;;
16506;SDS011;8366;51.020;7.642;2022-07-29T09:24:05;6.47;;;2.47;;
16506;SDS011;8366;51.020;7.642;2022-07-29T09:26:33;7.13;;;2.65;;
16506;SDS011;8366;51.020;7.642;2022-07-29T09:29:01;4.07;;;2.58;;
16506;SDS011;8366;51.020;7.642;2022-07-29T09:31:35;3.22;;;2.20;;
16506;SDS011;8366;51.020;7.642;2022-07-29T09:34:03;5.82;;;2.60;;
16506;SDS011;8366;51.020;7.642;2022-07-29T09:36:31;6.20;;;2.38;;
16506;SDS011;8366;51.020;7.642;2022-07-29T09:39:09;5.95;;;2.40;;
16506;SDS011;8366;51.020;7.642;2022-07-29T09:41:46;6.20;;;2.40;;
16506;SDS011;8366;51.020;7.642;2022-07-29T09:44:13;7.53;;;2.53;;
16506;SDS011;8366;51.020;7.642;2022-07-29T09:46:40;5.70;;;2.50;;
16506;SDS011;8366;51.020;7.642;2022-07-29T09:49:19;8.45;;;2.50;;
16506;SDS011;8366;51.020;7.642;2022-07-29T09:51:45;4.88;;;2.47;;
16506;SDS011;8366;51.020;7.642;2022-07-29T09:54:22;5.28;;;2.42;;
16506;SDS011;8366;51.020;7.642;2022-07-29T09:56:50;6.55;;;2.72;;
16506;SDS011;8366;51.020;7.642;2022-07-29T10:02:11;6.55;;;2.47;;
16506;SDS011;8366;51.020;7.642;2022-07-29T10:04:39;4.25;;;2.40;;
16506;SDS011;8366;51.020;7.642;2022-07-29T10:07:06;11.20;;;2.97;;
16506;SDS011;8366;51.020;7.642;2022-07-29T10:09:35;7.78;;;2.38;;
16506;SDS011;8366;51.020;7.642;2022-07-29T10:12:02;3.80;;;2.45;;
16506;SDS011;8366;51.020;7.642;2022-07-29T10:14:34;3.50;;;2.35;;
16506;SDS011;8366;51.020;7.642;2022-07-29T10:17:01;3.55;;;2.17;;
16506;SDS011;8366;51.020;7.642;2022-07-29T10:19:29;5.72;;;2.50;;
16506;SDS011;8366;51.020;7.642;2022-07-29T10:21:56;9.82;;;2.55;;
16506;SDS011;8366;51.020;7.642;2022-07-29T10:24:24;9.70;;;2.72;;
16506;SDS011;8366;51.020;7.642;2022-07-29T10:26:52;9.07;;;2.50;;
16506;SDS011;8366;51.020;7.642;2022-07-29T10:29:20;8.25;;;2.30;;
16506;SDS011;8366;51.020;7.642;2022-07-29T10:31:48;11.20;;;3.10;;
16506;SDS011;8366;51.020;7.642;2022-07-29T10:34:30;8.68;;;2.85;;
16506;SDS011;8366;51.020;7.642;2022-07-29T10:37:02;10.70;;;2.58;;
16506;SDS011;8366;51.020;7.642;2022-07-29T10:39:36;15.45;;;3.00;;
16506;SDS011;8366;51.020;7.642;2022-07-29T10:42:13;5.60;;;2.88;;
16506;SDS011;8366;51.020;7.642;2022-07-29T10:44:41;9.07;;;3.10;;
16506;SDS011;8366;51.020;7.642;2022-07-29T10:47:16;6.05;;;2.75;;
16506;SDS011;8366;51.020;7.642;2022-07-29T10:49:54;9.30;;;3.50;;
16506;SDS011;8366;51.020;7.642;2022-07-29T10:52:21;9.07;;;3.05;;
16506;SDS011;8366;51.020;7.642;2022-07-29T10:54:49;10.80;;;3.30;;
16506;SDS011;8366;51.020;7.642;2022-07-29T10:57:23;11.88;;;2.95;;
16506;SDS011;8366;51.020;7.642;2022-07-29T11:02:57;12.63;;;2.60;;
16506;SDS011;8366;51.020;7.642;2022-07-29T11:05:25;8.40;;;2.85;;
16506;SDS011;8366;51.020;7.642;2022-07-29T11:10:45;8.13;;;3.05;;
16506;SDS011;8366;51.020;7.642;2022-07-29T11:13:13;7.15;;;2.95;;
16506;SDS011;8366;51.020;7.642;2022-07-29T11:16:16;10.43;;;3.00;;
16506;SDS011;8366;51.020;7.642;2022-07-29T11:21:47;5.75;;;2.40;;
16506;SDS011;8366;51.020;7.642;2022-07-29T11:24:15;5.90;;;2.47;;
16506;SDS011;8366;51.020;7.642;2022-07-29T11:26:42;6.32;;;2.85;;
16506;SDS011;8366;51.020;7.642;2022-07-29T11:29:20;4.30;;;2.58;;
16506;SDS011;8366;51.020;7.642;2022-07-29T11:31:49;7.38;;;2.65;;
16506;SDS011;8366;51.020;7.642;2022-07-29T11:34:23;5.18;;;2.72;;
16506;SDS011;8366;51.020;7.642;2022-07-29T11:39:43;7.38;;;2.90;;
16506;SDS011;8366;51.020;7.642;2022-07-29T11:45:06;4.65;;;2.55;;
16506;SDS011;8366;51.020;7.642;2022-07-29T11:47:35;6.13;;;2.55;;
16506;SDS011;8366;51.020;7.642;2022-07-29T11:50:04;3.20;;;2.33;;
16506;SDS011;8366;51.020;7.642;2022-07-29T11:52:32;5.60;;;2.70;;
16506;SDS011;8366;51.020;7.642;2022-07-29T11:54:59;4.32;;;2.40;;
16506;SDS011;8366;51.020;7.642;2022-07-29T11:57:27;4.40;;;3.03;;
16506;SDS011;8366;51.020;7.642;2022-07-29T11:59:54;5.80;;;3.20;;
16506;SDS011;8366;51.020;7.642;2022-07-29T12:02:22;3.47;;;2.58;;
16506;SDS011;8366;51.020;7.642;2022-07-29T12:04:49;3.95;;;2.53;;
16506;SDS011;8366;51.020;7.642;2022-07-29T12:07:16;6.10;;;2.50;;
16506;SDS011;8366;51.020;7.642;2022-07-29T12:09:48;6.63;;;2.72;;
16506;SDS011;8366;51.020;7.642;2022-07-29T12:12:15;4.38;;;2.42;;
16506;SDS011;8366;51.020;7.642;2022-07-29T12:14:42;4.22;;;2.70;;
16506;SDS011;8366;51.020;7.642;2022-07-29T12:17:25;3.53;;;2.40;;
16506;SDS011;8366;51.020;7.642;2022-07-29T12:19:52;5.45;;;2.67;;
16506;SDS011;8366;51.020;7.642;2022-07-29T12:22:24;5.28;;;2.70;;
16506;SDS011;8366;51.020;7.642;2022-07-29T12:24:51;3.00;;;2.38;;
16506;SDS011;8366;51.020;7.642;2022-07-29T12:27:18;8.25;;;2.70;;
16506;SDS011;8366;51.020;7.642;2022-07-29T12:29:45;3.78;;;2.70;;
16506;SDS011;8366;51.020;7.642;2022-07-29T12:32:11;3.67;;;2.70;;
16506;SDS011;8366;51.020;7.642;2022-07-29T12:34:39;4.47;;;2.47;;
16506;SDS011;8366;51.020;7.642;2022-07-29T12:37:06;3.78;;;2.60;;
16506;SDS011;8366;51.020;7.642;2022-07-29T12:39:34;4.65;;;2.58;;
16506;SDS011;8366;51.020;7.642;2022-07-29T12:42:10;7.05;;;2.70;;
16506;SDS011;8366;51.020;7.642;2022-07-29T12:44:44;4.95;;;2.50;;
16506;SDS011;8366;51.020;7.642;2022-07-29T12:47:12;4.07;;;2.65;;
16506;SDS011;8366;51.020;7.642;2022-07-29T12:49:40;5.63;;;2.60;;
16506;SDS011;8366;51.020;7.642;2022-07-29T12:54:53;7.38;;;2.40;;
16506;SDS011;8366;51.020;7.642;2022-07-29T12:57:20;5.00;;;2.80;;
16506;SDS011;8366;51.020;7.642;2022-07-29T12:59:58;4.85;;;2.65;;
16506;SDS011;8366;51.020;7.642;2022-07-29T13:02:33;4.38;;;2.80;;
16506;SDS011;8366;51.020;7.642;2022-07-29T13:05:01;4.07;;;2.58;;
16506;SDS011;8366;51.020;7.642;2022-07-29T13:07:30;5.10;;;2.78;;
16506;SDS011;8366;51.020;7.642;2022-07-29T13:10:09;6.93;;;3.00;;
16506;SDS011;8366;51.020;7.642;2022-07-29T13:12:36;3.92;;;2.33;;
16506;SDS011;8366;51.020;7.642;2022-07-29T13:15:11;4.35;;;2.75;;
16506;SDS011;8366;51.020;7.642;2022-07-29T13:17:40;5.97;;;2.80;;
16506;SDS011;8366;51.020;7.642;2022-07-29T13:20:09;5.55;;;2.70;;
16506;SDS011;8366;51.020;7.642;2022-07-29T13:22:39;4.68;;;2.65;;
16506;SDS011;8366;51.020;7.642;2022-07-29T13:25:07;4.60;;;3.03;;
16506;SDS011;8366;51.020;7.642;2022-07-29T13:27:35;4.72;;;2.70;;
16506;SDS011;8366;51.020;7.642;2022-07-29T13:30:03;6.22;;;2.50;;
16506;SDS011;8366;51.020;7.642;2022-07-29T13:32:31;4.68;;;2.58;;
16506;SDS011;8366;51.020;7.642;2022-07-29T13:35:00;5.88;;;2.92;;
16506;SDS011;8366;51.020;7.642;2022-07-29T13:37:30;4.28;;;2.92;;
16506;SDS011;8366;51.020;7.642;2022-07-29T13:39:59;4.00;;;2.95;;
16506;SDS011;8366;51.020;7.642;2022-07-29T13:42:27;4.82;;;2.55;;
16506;SDS011;8366;51.020;7.642;2022-07-29T13:44:54;3.65;;;2.35;;
16506;SDS011;8366;51.020;7.642;2022-07-29T13:47:21;4.60;;;3.08;;
16506;SDS011;8366;51.020;7.642;2022-07-29T13:49:48;3.78;;;2.47;;
16506;SDS011;8366;51.020;7.642;2022-07-29T13:54:49;6.78;;;2.55;;
16506;SDS011;8366;51.020;7.642;2022-07-29T13:57:18;3.33;;;2.53;;
16506;SDS011;8366;51.020;7.642;2022-07-29T13:59:46;6.53;;;2.67;;
16506;SDS011;8366;51.020;7.642;2022-07-29T14:02:28;7.57;;;2.80;;
16506;SDS011;8366;51.020;7.642;2022-07-29T14:04:55;2.88;;;2.55;;
16506;SDS011;8366;51.020;7.642;2022-07-29T14:07:23;5.80;;;2.33;;
16506;SDS011;8366;51.020;7.642;2022-07-29T14:09:51;4.63;;;2.20;;
16506;SDS011;8366;51.020;7.642;2022-07-29T14:12:18;6.55;;;2.50;;
16506;SDS011;8366;51.020;7.642;2022-07-29T14:14:47;4.22;;;2.58;;
16506;SDS011;8366;51.020;7.642;2022-07-29T14:17:33;6.97;;;2.60;;
16506;SDS011;8366;51.020;7.642;2022-07-29T14:20:23;4.90;;;2.38;;
16506;SDS011;8366;51.020;7.642;2022-07-29T14:23:03;3.53;;;2.33;;
16506;SDS011;8366;51.020;7.642;2022-07-29T14:25:31;6.28;;;2.22;;
16506;SDS011;8366;51.020;7.642;2022-07-29T14:28:08;6.80;;;2.45;;
16506;SDS011;8366;51.020;7.642;2022-07-29T14:30:34;6.75;;;2.50;;
16506;SDS011;8366;51.020;7.642;2022-07-29T14:33:02;9.60;;;2.63;;
16506;SDS011;8366;51.020;7.642;2022-07-29T14:35:31;6.07;;;2.97;;
16506;SDS011;8366;51.020;7.642;2022-07-29T14:37:58;5.80;;;2.50;;
16506;SDS011;8366;51.020;7.642;2022-07-29T14:40:24;5.18;;;2.80;;
16506;SDS011;8366;51.020;7.642;2022-07-29T14:42:53;5.43;;;2.55;;
16506;SDS011;8366;51.020;7.642;2022-07-29T14:45:19;8.13;;;2.65;;
16506;SDS011;8366;51.020;7.642;2022-07-29T14:47:46;6.07;;;3.00;;
16506;SDS011;8366;51.020;7.642;2022-07-29T14:50:14;9.73;;;3.35;;
16506;SDS011;8366;51.020;7.642;2022-07-29T14:52:40;9.18;;;3.40;;
16506;SDS011;8366;51.020;7.642;2022-07-29T14:55:07;5.30;;;2.88;;
16506;SDS011;8366;51.020;7.642;2022-07-29T14:57:34;11.40;;;2.95;;
16506;SDS011;8366;51.020;7.642;2022-07-29T15:00:03;8.13;;;2.83;;
16506;SDS011;8366;51.020;7.642;2022-07-29T15:02:31;9.98;;;2.80;;
16506;SDS011;8366;51.020;7.642;2022-07-29T15:04:57;6.45;;;2.97;;
16506;SDS011;8366;51.020;7.642;2022-07-29T15:07:24;5.72;;;2.92;;
16506;SDS011;8366;51.020;7.642;2022-07-29T15:09:50;4.22;;;2.53;;
16506;SDS011;8366;51.020;7.642;2022-07-29T15:12:17;5.50;;;2.65;;
16506;SDS011;8366;51.020;7.642;2022-07-29T15:14:43;5.10;;;2.60;;
16506;SDS011;8366;51.020;7.642;2022-07-29T15:17:11;5.20;;;2.80;;
16506;SDS011;8366;51.020;7.642;2022-07-29T15:19:38;3.83;;;2.60;;
16506;SDS011;8366;51.020;7.642;2022-07-29T15:22:04;7.65;;;2.90;;
16506;SDS011;8366;51.020;7.642;2022-07-29T15:24:31;5.25;;;2.65;;
16506;SDS011;8366;51.020;7.642;2022-07-29T15:26:57;6.55;;;2.90;;
16506;SDS011;8366;51.020;7.642;2022-07-29T15:29:24;6.38;;;2.50;;
16506;SDS011;8366;51.020;7.642;2022-07-29T15:31:50;7.43;;;2.35;;
16506;SDS011;8366;51.020;7.642;2022-07-29T15:34:18;5.10;;;2.40;;
16506;SDS011;8366;51.020;7.642;2022-07-29T15:36:48;8.00;;;3.00;;
16506;SDS011;8366;51.020;7.642;2022-07-29T15:39:14;7.50;;;2.97;;